Airfield :
LOGIN :

Register | Disclaimer

   EN    FR    IT 

 










Legend :    VFR   Marginal VFR   IFR   Intensive IFR   Very Intensive IFR
Visi :
Ceiling :
>= 8 km
>= 3000ft
5 to 8 km
1000 to 3000 ft
1500m to 5 km
500 to 1000 ft
800 to 1500m
200 to 500 ft
< 800m
< 200 ft
Symbols :   Thunderstorms  Fog  Heavy snow  Heavy precipitations  Wind > 20 kt
SIGMETs :     Misc.  Thunderstorms  Icing  Turbulence  Mountain Waves  Volcanic Ashes






- Airport Elevation : 63 ft
- IATA code : BZM


EHWO - Woensdrecht Airbase

CURRENT METAR :
  • 021725Z AUTO 31006KT 270V030 9999 NCD 19/10 Q1014 BLU

EXPIRED METARs :
  • 021655Z AUTO VRB06KT 9999 NCD 19/09 Q1014 BLU
  • 021625Z AUTO 29007KT 200V360 9999 NCD 19/10 Q1014 BLU
  • 021555Z AUTO 29008KT 250V010 9999 NCD 19/10 Q1014 BLU
  • 021525Z AUTO 32009KT 270V020 9999 BKN037 19/10 Q1014 BLU
  • 021455Z AUTO 34006KT 270V030 9999 SCT036 BKN042 BKN073 20/11 Q1014 BLU

TAF TAF EHWO
Valid from the 02 at 09:00 until the 02 at 21:00 UTC


020846Z 0209/0221 32006KT SCT025 SCT035



MET'MAP, your aeronautical weather chart ! - Copyright ORBIFLY December 2007 - Disclaimer

ORBIFLY MET'MAP TEAM :

Programming & Development : Alexandra Zaïnal
Concept & original design : Baudouin d'Aumeries
Assistance for programming : Marc-Olivier Méhu
Technical & hardware support : Manuel Goepfert

Contact : metmap@orbifly.com




SOURCES & CREDITS :

   NOAA